Главная страница
METAR-TAF:

METAR-TAF

Аэропорты :

Флорешты, Молдавия

широта: 47-51-45N, долгота: 028-12-45E, высота над уровнем моря: 101 м

Текущие метеонаблюдения

Эта сводка был подготовлена 23 часа и 14 минут назад, в 13:30 UTC
Ветер 8 Узел от восточный, изменяющийся между восточно-северо-восточный и восточно-юго-восточный
Температура 22°C
Влажность 31%
Давление 1027 hPa
Видимость 10 км и более
Нет облачности ниже 1500 м, и нет кучево-дождевой облачности

METAR: LUBM 151330Z 10008KT 060V120 CAVOK 22/04 Q1027 R25/CLRD65

Время: 15:44 (12:44 UTC)

Прогноз

Эта сводка был подготовлена 25 часа и 24 минут назад, в 11:20 UTC
Прогноз действительный с 15-го 12 UTC до 15-го 21 UTC
Ветер 8 Узел от восточный
Видимость 10 км и более
Нет облачности ниже 1500 м, и нет кучево-дождевой облачности

TAF: LUBM 151120Z 1512/1521 10008KT CAVOK

Метеонаблюдения и прогнозы для более 4000 аэропортов (сводки METAR и TAF).

Имеющиеся станции представлены на карте желтыми и красными точками.

Чтобы увидеть название станции, наведите на нее мышь.

Затем щелкните, чтобы увидеть метеонаблюдения и метеопрогнозы.

Управление картой: чтобы увеличить масштаб, щелкните зеленые кнопки с черным крестиком; чтобы уменьшить масштаб, щелкните зеленую кнопку с тире; для просмотра соседних карт щелкайте зеленые стрелки.


METAR-TAF: